createdAt,value
2022-09-12T00:01:46.180Z,33.58
2022-09-12T00:04:16.367Z,32.40
2022-09-12T00:06:44.374Z,33.92
2022-09-12T00:09:14.468Z,33.28
2022-09-12T00:11:47.120Z,36.10
2022-09-12T00:14:18.803Z,35.38
2022-09-12T00:16:47.057Z,37.30
2022-09-12T00:19:15.245Z,38.30
2022-09-12T00:21:44.785Z,39.83
2022-09-12T00:24:12.658Z,39.05
2022-09-12T00:26:40.706Z,37.53
2022-09-12T00:29:15.307Z,38.15
2022-09-12T00:31:43.229Z,40.35
2022-09-12T00:34:11.889Z,41.17
2022-09-12T00:36:42.253Z,41.60
2022-09-12T00:39:16.787Z,40.30
2022-09-12T00:41:45.541Z,41.13
2022-09-12T00:44:47.645Z,40.47
2022-09-12T00:47:37.616Z,40.58
2022-09-12T00:50:13.201Z,38.97
2022-09-12T00:52:51.647Z,39.65
2022-09-12T00:55:26.310Z,40.78
2022-09-12T00:58:00.695Z,40.45
2022-09-12T01:00:30.411Z,39.30
2022-09-12T01:03:07.181Z,38.38
2022-09-12T01:05:40.845Z,37.92
2022-09-12T01:08:08.674Z,39.45
2022-09-12T01:10:40.094Z,39.50
2022-09-12T01:13:11.020Z,40.30
2022-09-12T01:15:41.126Z,40.22
2022-09-12T01:18:21.025Z,38.72
2022-09-12T01:21:08.954Z,41.03
2022-09-12T01:24:12.092Z,40.45
2022-09-12T01:27:47.765Z,37.97
2022-09-12T01:30:39.424Z,38.63
2022-09-12T01:33:48.845Z,39.28
2022-09-12T01:36:38.085Z,36.75
2022-09-12T01:39:12.313Z,35.67
2022-09-12T01:41:52.944Z,38.53
2022-09-12T01:44:35.013Z,36.40
2022-09-12T01:47:10.048Z,35.78
2022-09-12T01:49:50.017Z,35.40
2022-09-12T01:52:26.402Z,36.63
2022-09-12T01:55:01.528Z,36.17
2022-09-12T01:57:41.274Z,36.05
2022-09-12T02:00:13.076Z,34.85
2022-09-12T02:02:55.446Z,35.22
2022-09-12T02:05:33.495Z,36.30
2022-09-12T02:08:09.602Z,34.85
2022-09-12T02:10:45.286Z,35.65
2022-09-12T02:13:22.365Z,35.30
2022-09-12T02:15:58.927Z,35.63
2022-09-12T02:18:32.810Z,37.47
2022-09-12T02:21:06.474Z,37.83
2022-09-12T02:23:41.386Z,37.75
2022-09-12T02:26:21.581Z,36.97
2022-09-12T02:28:50.923Z,36.65
2022-09-12T02:31:28.263Z,36.67
2022-09-12T02:34:13.334Z,38.28
2022-09-12T02:36:52.265Z,38.67
2022-09-12T02:39:21.224Z,37.67
2022-09-12T02:41:53.155Z,37.72
2022-09-12T02:44:21.722Z,38.65
2022-09-12T02:46:57.496Z,39.63
2022-09-12T02:49:27.872Z,38.25
2022-09-12T02:51:56.212Z,43.05
2022-09-12T02:54:25.658Z,41.15
2022-09-12T02:56:53.748Z,41.35
2022-09-12T02:59:25.164Z,40.53
2022-09-12T03:02:25.048Z,39.95
2022-09-12T03:05:22.878Z,42.43
2022-09-12T03:08:26.772Z,43.45
2022-09-12T03:11:43.315Z,40.97
2022-09-12T03:14:30.616Z,39.33
2022-09-12T03:17:14.418Z,40.22
2022-09-12T03:19:55.284Z,43.38
2022-09-12T03:22:33.780Z,40.90
2022-09-12T03:25:13.496Z,40.70
2022-09-12T03:27:48.790Z,39.40
2022-09-12T03:30:17.007Z,39.88
2022-09-12T03:32:48.595Z,39.38
2022-09-12T03:35:22.971Z,38.85
2022-09-12T03:37:53.547Z,39.45
2022-09-12T03:40:21.732Z,38.87
2022-09-12T03:42:49.828Z,38.20
2022-09-12T03:45:18.030Z,40.08
2022-09-12T03:47:45.956Z,39.33
2022-09-12T03:50:16.153Z,40.05
2022-09-12T03:52:44.146Z,36.95
2022-09-12T03:55:13.545Z,38.03
2022-09-12T03:57:42.070Z,39.97
2022-09-12T04:00:14.422Z,40.60
2022-09-12T04:02:45.580Z,40.42
2022-09-12T04:05:13.619Z,39.15
2022-09-12T04:07:41.741Z,38.72
2022-09-12T04:10:10.302Z,38.20
2022-09-12T04:12:39.841Z,39.10
2022-09-12T04:15:10.195Z,38.45
2022-09-12T04:17:39.566Z,35.23
2022-09-12T04:20:08.360Z,35.90
2022-09-12T04:22:36.572Z,34.92
2022-09-12T04:25:05.626Z,35.77
2022-09-12T04:27:34.777Z,35.90
2022-09-12T04:30:06.171Z,35.55
2022-09-12T04:32:34.032Z,32.25
2022-09-12T04:35:02.188Z,34.95
2022-09-12T04:37:31.239Z,33.20
2022-09-12T04:40:01.156Z,31.63
2022-09-12T04:42:29.883Z,32.03
2022-09-12T04:44:58.023Z,30.47
2022-09-12T04:47:27.417Z,30.55
2022-09-12T04:49:55.582Z,30.42
2022-09-12T04:52:23.445Z,30.52
2022-09-12T04:54:51.278Z,28.58
2022-09-12T04:57:19.379Z,28.80
2022-09-12T04:59:47.256Z,28.00
2022-09-12T05:02:15.310Z,28.77
2022-09-12T05:04:47.005Z,28.77
2022-09-12T05:07:14.893Z,30.50
2022-09-12T05:09:43.195Z,29.57
2022-09-12T05:12:11.258Z,28.80
2022-09-12T05:14:39.498Z,30.03
2022-09-12T05:17:08.361Z,29.50
2022-09-12T05:19:36.939Z,28.67
2022-09-12T05:22:07.426Z,29.20
2022-09-12T05:24:36.111Z,30.10
2022-09-12T05:27:04.728Z,29.43
2022-09-12T05:29:32.672Z,28.50
2022-09-12T05:32:01.955Z,27.33
2022-09-12T05:34:30.083Z,27.58
2022-09-12T05:36:58.207Z,25.02
2022-09-12T05:39:28.358Z,25.25
2022-09-12T05:41:56.546Z,23.27
2022-09-12T05:44:24.827Z,23.30
2022-09-12T05:46:53.574Z,23.58
2022-09-12T05:49:21.617Z,22.40
2022-09-12T05:51:50.901Z,21.45
2022-09-12T05:54:20.560Z,20.63
2022-09-12T05:56:49.869Z,19.13
2022-09-12T05:59:20.535Z,18.63
2022-09-12T06:01:49.631Z,16.80
2022-09-12T06:04:17.891Z,18.13
2022-09-12T06:06:46.758Z,16.83
2022-09-12T06:09:16.541Z,15.15
2022-09-12T06:11:46.601Z,15.65
2022-09-12T06:14:17.636Z,15.00
2022-09-12T06:16:48.098Z,15.05
2022-09-12T06:19:19.485Z,14.50
2022-09-12T06:21:50.020Z,14.32
2022-09-12T06:24:19.994Z,14.30
2022-09-12T06:26:49.787Z,13.88
2022-09-12T06:29:19.620Z,13.63
2022-09-12T06:31:47.409Z,12.88
2022-09-12T06:34:16.690Z,12.63
2022-09-12T06:36:47.345Z,13.00
2022-09-12T06:39:17.513Z,12.27
2022-09-12T06:41:47.873Z,12.85
2022-09-12T06:44:20.031Z,13.73
2022-09-12T06:46:48.843Z,13.15
2022-09-12T06:49:17.980Z,14.23
2022-09-12T06:51:47.511Z,15.35
2022-09-12T06:54:17.427Z,13.82
2022-09-12T06:56:45.291Z,13.32
2022-09-12T06:59:13.327Z,14.27
2022-09-12T07:01:42.901Z,13.05
2022-09-12T07:04:13.816Z,13.90
2022-09-12T07:06:44.016Z,13.68
2022-09-12T07:09:17.380Z,12.20
2022-09-12T07:11:46.616Z,12.95
2022-09-12T07:14:16.218Z,12.23
2022-09-12T07:16:45.432Z,12.27
2022-09-12T07:19:13.327Z,12.35
2022-09-12T07:21:43.166Z,12.10
2022-09-12T07:24:11.458Z,11.52
2022-09-12T07:26:41.833Z,11.55
2022-09-12T07:29:36.682Z,11.80
2022-09-12T07:32:07.536Z,11.80
2022-09-12T07:34:35.862Z,12.20
2022-09-12T07:37:03.952Z,11.57
2022-09-12T07:39:32.794Z,11.93
2022-09-12T07:42:02.561Z,12.43
2022-09-12T07:44:30.686Z,11.80
2022-09-12T07:46:58.777Z,11.55
2022-09-12T07:49:28.216Z,11.23
2022-09-12T07:51:56.883Z,12.18
2022-09-12T07:54:24.754Z,11.07
2022-09-12T07:56:52.756Z,12.00
2022-09-12T07:59:41.481Z,11.63
2022-09-12T08:02:17.549Z,12.02
2022-09-12T08:04:49.104Z,11.60
2022-09-12T08:07:19.095Z,12.15
2022-09-12T08:09:49.245Z,11.10
2022-09-12T08:12:20.158Z,10.73
2022-09-12T08:14:48.473Z,11.20
2022-09-12T08:17:16.404Z,11.43
2022-09-12T08:19:44.956Z,11.23
2022-09-12T08:22:14.396Z,10.90
2022-09-12T08:24:44.516Z,11.70
2022-09-12T08:27:17.019Z,11.82
2022-09-12T08:29:45.124Z,11.25
2022-09-12T08:32:13.015Z,10.52
2022-09-12T08:34:40.849Z,10.10
2022-09-12T08:37:08.726Z,10.98
2022-09-12T08:39:40.051Z,10.52
2022-09-12T08:42:24.659Z,11.18
2022-09-12T08:45:11.702Z,10.60
2022-09-12T08:47:45.831Z,10.05
2022-09-12T08:50:20.598Z,10.23
2022-09-12T08:52:58.852Z,10.50
2022-09-12T08:55:35.480Z,9.73
2022-09-12T08:58:17.210Z,9.93
2022-09-12T09:00:59.451Z,10.73
2022-09-12T09:03:58.555Z,10.02
2022-09-12T09:06:52.286Z,9.93
2022-09-12T09:09:39.634Z,10.75
2022-09-12T09:12:23.737Z,10.52
2022-09-12T09:15:14.665Z,10.88
2022-09-12T09:17:51.887Z,9.90
2022-09-12T09:20:32.294Z,10.32
2022-09-12T09:23:08.122Z,9.73
2022-09-12T09:25:52.506Z,9.98
2022-09-12T09:28:31.658Z,9.82
2022-09-12T09:31:00.030Z,9.23
2022-09-12T09:33:35.114Z,9.55
2022-09-12T09:36:20.778Z,9.93
2022-09-12T09:38:54.235Z,9.57
2022-09-12T09:41:51.558Z,10.00
2022-09-12T09:44:21.066Z,9.35
2022-09-12T09:46:54.823Z,9.77
2022-09-12T09:49:25.617Z,9.27
2022-09-12T09:51:58.784Z,9.40
2022-09-12T09:54:36.509Z,10.15
2022-09-12T09:57:05.152Z,10.15
2022-09-12T09:59:35.645Z,11.18
2022-09-12T10:02:24.297Z,9.77
2022-09-12T10:04:58.751Z,10.15
2022-09-12T10:07:27.375Z,9.55
2022-09-12T10:10:14.842Z,9.70
2022-09-12T10:12:43.462Z,10.52
2022-09-12T10:15:26.703Z,9.98
2022-09-12T10:17:56.914Z,10.48
2022-09-12T10:20:38.517Z,10.05
2022-09-12T10:23:30.338Z,9.55
2022-09-12T10:26:03.934Z,10.00
2022-09-12T10:28:39.289Z,9.23
2022-09-12T10:31:17.427Z,9.50
2022-09-12T10:33:53.385Z,10.02
2022-09-12T10:36:29.115Z,9.38
2022-09-12T10:39:03.098Z,9.93
2022-09-12T10:41:40.839Z,9.43
2022-09-12T10:44:17.640Z,9.13
2022-09-12T10:46:47.192Z,8.68
2022-09-12T10:49:27.856Z,8.10
2022-09-12T10:52:15.433Z,7.85
2022-09-12T10:54:43.769Z,9.75
2022-09-12T10:57:44.223Z,9.45
2022-09-12T11:00:17.884Z,8.10
2022-09-12T11:03:08.383Z,8.10
2022-09-12T11:05:57.805Z,10.07
2022-09-12T11:09:06.281Z,8.25
2022-09-12T11:11:58.446Z,9.48
2022-09-12T11:14:44.332Z,8.00
2022-09-12T11:17:30.213Z,8.10
2022-09-12T11:20:39.107Z,8.57
2022-09-12T11:23:44.839Z,7.05
2022-09-12T11:26:34.392Z,7.03
2022-09-12T11:29:16.252Z,7.15
2022-09-12T11:32:10.536Z,5.82
2022-09-12T11:34:58.793Z,6.40
2022-09-12T11:37:49.368Z,5.57
2022-09-12T11:40:30.807Z,5.63
2022-09-12T11:43:07.545Z,4.55
2022-09-12T11:45:42.896Z,4.75
2022-09-12T11:48:28.307Z,5.78
2022-09-12T11:51:02.492Z,5.28
2022-09-12T11:53:40.975Z,5.68
2022-09-12T11:56:18.535Z,6.47
2022-09-12T11:58:58.905Z,5.70
2022-09-12T12:01:45.005Z,5.93
2022-09-12T12:04:27.573Z,5.38
2022-09-12T12:07:03.298Z,4.97
2022-09-12T12:09:37.413Z,5.90
2022-09-12T12:12:16.848Z,5.40
2022-09-12T12:14:49.182Z,6.18
2022-09-12T12:17:23.173Z,5.45
2022-09-12T12:20:05.533Z,6.38
2022-09-12T12:22:36.297Z,5.35
2022-09-12T12:25:29.916Z,5.90
2022-09-12T12:28:01.813Z,3.97
2022-09-12T12:31:01.168Z,4.68
2022-09-12T12:34:00.612Z,5.80
2022-09-12T12:36:52.436Z,5.72
2022-09-12T12:40:04.834Z,6.30
2022-09-12T12:43:31.483Z,5.75
2022-09-12T12:46:05.053Z,5.10
2022-09-12T12:48:46.254Z,5.32
2022-09-12T12:51:44.367Z,5.75
2022-09-12T12:54:50.145Z,5.97
2022-09-12T12:57:52.672Z,5.28
2022-09-12T13:00:35.394Z,5.50
2022-09-12T13:03:23.939Z,5.13
2022-09-12T13:06:00.851Z,4.90
2022-09-12T13:08:33.113Z,5.70
2022-09-12T13:11:08.340Z,4.93
2022-09-12T13:13:44.087Z,4.88
2022-09-12T13:16:35.069Z,5.43
2022-09-12T13:19:08.384Z,4.88
2022-09-12T13:21:36.600Z,5.00
2022-09-12T13:24:13.916Z,4.78
2022-09-12T13:26:46.213Z,4.55
2022-09-12T13:29:18.566Z,4.90
2022-09-12T13:31:54.658Z,5.03
2022-09-12T13:34:29.207Z,4.47
2022-09-12T13:37:28.069Z,5.30
2022-09-12T13:40:16.835Z,5.32
2022-09-12T13:42:51.119Z,4.25
2022-09-12T13:45:22.787Z,4.35
2022-09-12T13:47:58.893Z,3.92
2022-09-12T13:50:32.970Z,3.75
2022-09-12T13:53:07.173Z,3.28
2022-09-12T13:55:41.867Z,3.70
2022-09-12T13:58:21.150Z,3.72
2022-09-12T14:01:02.664Z,3.58
2022-09-12T14:03:58.987Z,4.00
2022-09-12T14:06:27.723Z,3.60
2022-09-12T14:09:01.310Z,3.72
2022-09-12T14:11:34.133Z,3.80
2022-09-12T14:14:17.140Z,3.35
2022-09-12T14:16:45.118Z,3.42
2022-09-12T14:19:16.426Z,3.20
2022-09-12T14:21:46.432Z,3.50
2022-09-12T14:24:15.000Z,2.95
2022-09-12T14:26:44.840Z,2.92
2022-09-12T14:29:17.683Z,3.00
2022-09-12T14:31:46.176Z,3.20
2022-09-12T14:34:18.434Z,2.90
2022-09-12T14:36:49.909Z,3.10
2022-09-12T14:39:31.889Z,2.83
2022-09-12T14:42:06.191Z,2.58
2022-09-12T14:44:36.616Z,2.72
2022-09-12T14:47:20.150Z,2.70
2022-09-12T14:49:54.129Z,2.45
2022-09-12T14:52:28.754Z,2.38
2022-09-12T14:54:59.621Z,2.30
2022-09-12T14:57:39.227Z,2.53
2022-09-12T15:00:26.278Z,2.17
2022-09-12T15:02:54.763Z,2.30
2022-09-12T15:05:27.919Z,2.40
2022-09-12T15:08:00.652Z,2.40
2022-09-12T15:10:32.312Z,2.30
2022-09-12T15:13:19.586Z,2.42
2022-09-12T15:15:51.195Z,2.15
2022-09-12T15:18:20.649Z,2.42
2022-09-12T15:20:54.807Z,2.28
2022-09-12T15:23:40.135Z,2.33
2022-09-12T15:26:11.605Z,2.20
2022-09-12T15:28:40.459Z,2.40
2022-09-12T15:31:20.337Z,2.45
2022-09-12T15:33:49.111Z,2.50
2022-09-12T15:36:23.335Z,2.50
2022-09-12T15:38:53.339Z,2.40
2022-09-12T15:41:26.672Z,2.40
2022-09-12T15:43:54.700Z,2.42
2022-09-12T15:46:23.648Z,2.50
2022-09-12T15:48:52.320Z,2.45
2022-09-12T15:51:22.553Z,3.00
2022-09-12T15:53:51.730Z,2.78
2022-09-12T15:56:21.749Z,2.80
2022-09-12T15:58:58.672Z,2.85
2022-09-12T16:01:28.915Z,2.65
2022-09-12T16:04:01.281Z,2.78
2022-09-12T16:06:36.773Z,2.70
2022-09-12T16:09:05.718Z,2.92
2022-09-12T16:11:34.951Z,2.75
2022-09-12T16:14:04.691Z,2.72
2022-09-12T16:16:32.718Z,2.88
2022-09-12T16:19:00.686Z,2.70
2022-09-12T16:21:29.894Z,2.70
2022-09-12T16:23:59.017Z,2.92
2022-09-12T16:26:26.965Z,2.75
2022-09-12T16:29:06.652Z,2.72
2022-09-12T16:31:39.313Z,2.67
2022-09-12T16:34:07.512Z,2.65
2022-09-12T16:36:36.833Z,3.03
2022-09-12T16:39:06.332Z,2.75
2022-09-12T16:41:34.951Z,2.72
2022-09-12T16:44:05.814Z,2.80
2022-09-12T16:46:34.657Z,2.70
2022-09-12T16:49:02.599Z,3.03
2022-09-12T16:51:38.226Z,5.30
2022-09-12T16:54:06.382Z,3.20
2022-09-12T16:56:34.997Z,3.30
2022-09-12T16:59:04.332Z,3.13
2022-09-12T17:01:35.205Z,3.30
2022-09-12T17:04:06.289Z,3.33
2022-09-12T17:06:35.022Z,3.60
2022-09-12T17:09:05.551Z,3.35
2022-09-12T17:11:39.402Z,2.72
2022-09-12T17:14:08.977Z,3.30
2022-09-12T17:16:40.893Z,3.70
2022-09-12T17:19:18.806Z,3.20
2022-09-12T17:21:49.116Z,3.70
2022-09-12T17:24:20.105Z,3.85
2022-09-12T17:26:51.060Z,4.32
2022-09-12T17:29:20.134Z,3.80
2022-09-12T17:31:50.428Z,4.28
2022-09-12T17:34:18.308Z,5.00
2022-09-12T17:36:48.307Z,4.15
2022-09-12T17:39:18.045Z,3.83
2022-09-12T17:41:47.367Z,3.70
2022-09-12T17:44:16.039Z,4.10
2022-09-12T17:46:44.373Z,3.67
2022-09-12T17:49:16.800Z,4.00
2022-09-12T17:51:47.042Z,4.03
2022-09-12T17:54:20.793Z,4.32
2022-09-12T17:56:51.479Z,4.13
2022-09-12T17:59:23.904Z,3.92
2022-09-12T18:02:10.501Z,4.13
2022-09-12T18:04:42.257Z,4.00
2022-09-12T18:07:10.538Z,3.80
2022-09-12T18:09:41.451Z,3.90
2022-09-12T18:12:12.669Z,4.30
2022-09-12T18:14:40.913Z,3.83
2022-09-12T18:17:11.365Z,4.28
2022-09-12T18:19:40.954Z,4.00
2022-09-12T18:22:09.434Z,3.88
2022-09-12T18:24:39.756Z,3.67
2022-09-12T18:27:07.689Z,3.80
2022-09-12T18:29:36.409Z,3.80
2022-09-12T18:32:04.472Z,4.30
2022-09-12T18:34:32.951Z,3.58
2022-09-12T18:37:01.857Z,4.18
2022-09-12T18:39:29.761Z,4.25
2022-09-12T18:41:59.166Z,4.80
2022-09-12T18:44:27.874Z,4.68
2022-09-12T18:46:56.667Z,4.55
2022-09-12T18:49:24.630Z,4.05
2022-09-12T18:51:52.719Z,4.70
2022-09-12T18:54:20.783Z,4.05
2022-09-12T18:56:48.797Z,4.00
2022-09-12T18:59:20.602Z,4.03
2022-09-12T19:01:48.774Z,3.80
2022-09-12T19:04:17.303Z,4.03
2022-09-12T19:06:48.215Z,3.70
2022-09-12T19:09:20.634Z,4.05
2022-09-12T19:11:50.361Z,4.03
2022-09-12T19:14:23.049Z,3.80
2022-09-12T19:16:52.844Z,3.95
2022-09-12T19:19:22.942Z,4.38
2022-09-12T19:21:51.889Z,3.95
2022-09-12T19:24:21.678Z,3.90
2022-09-12T19:26:51.496Z,4.00
2022-09-12T19:29:22.019Z,4.13
2022-09-12T19:31:54.076Z,4.80
2022-09-12T19:34:22.938Z,5.05
2022-09-12T19:36:50.855Z,4.70
2022-09-12T19:39:19.864Z,5.57
2022-09-12T19:41:48.270Z,5.40
2022-09-12T19:44:19.154Z,5.32
2022-09-12T19:46:48.479Z,6.25
2022-09-12T19:49:16.383Z,6.00
2022-09-12T19:51:45.485Z,6.13
2022-09-12T19:54:14.755Z,5.68
2022-09-12T19:56:42.614Z,6.57
2022-09-12T19:59:11.125Z,6.25
2022-09-12T20:01:39.364Z,6.18
2022-09-12T20:04:08.656Z,6.20
2022-09-12T20:06:36.710Z,5.65
2022-09-12T20:09:04.807Z,5.38
2022-09-12T20:11:32.829Z,5.47
2022-09-12T20:14:01.571Z,5.63
2022-09-12T20:16:30.072Z,6.07
2022-09-12T20:19:02.300Z,5.88
2022-09-12T20:21:36.152Z,5.78
2022-09-12T20:24:07.640Z,5.68
2022-09-12T20:26:36.688Z,5.80
2022-09-12T20:29:05.424Z,5.90
2022-09-12T20:31:36.593Z,6.57
2022-09-12T20:34:06.576Z,5.95
2022-09-12T20:36:35.829Z,6.43
2022-09-12T20:39:05.807Z,6.70
2022-09-12T20:41:36.623Z,6.40
2022-09-12T20:44:04.628Z,7.57
2022-09-12T20:46:33.418Z,7.47
2022-09-12T20:49:01.766Z,7.20
2022-09-12T20:51:30.470Z,7.55
2022-09-12T20:54:03.373Z,7.70
2022-09-12T20:56:34.051Z,7.60
2022-09-12T20:59:04.313Z,7.60
2022-09-12T21:01:33.109Z,7.10
2022-09-12T21:04:02.670Z,6.72
2022-09-12T21:06:31.691Z,6.78
2022-09-12T21:09:01.094Z,6.55
2022-09-12T21:11:29.701Z,7.10
2022-09-12T21:13:58.101Z,7.05
2022-09-12T21:16:26.583Z,6.90
2022-09-12T21:18:58.858Z,6.60
2022-09-12T21:21:27.160Z,6.70
2022-09-12T21:24:00.457Z,6.97
2022-09-12T21:26:29.403Z,6.68
2022-09-12T21:28:58.501Z,7.15
2022-09-12T21:31:27.242Z,7.22
2022-09-12T21:33:55.263Z,6.80
2022-09-12T21:36:24.828Z,7.20
2022-09-12T21:38:52.890Z,6.82
2022-09-12T21:41:22.703Z,6.95
2022-09-12T21:43:51.238Z,6.78
2022-09-12T21:46:19.215Z,7.10
2022-09-12T21:48:47.416Z,7.80
2022-09-12T21:51:15.372Z,7.53
2022-09-12T21:53:43.590Z,8.27
2022-09-12T21:56:11.827Z,8.38
2022-09-12T21:58:41.333Z,7.60
2022-09-12T22:01:11.741Z,7.75
2022-09-12T22:03:42.460Z,7.68
2022-09-12T22:06:10.413Z,7.40
2022-09-12T22:08:39.156Z,7.78
2022-09-12T22:11:11.770Z,7.88
2022-09-12T22:13:45.716Z,7.57
2022-09-12T22:16:14.334Z,8.27
2022-09-12T22:18:42.200Z,8.35
2022-09-12T22:21:15.842Z,7.97
2022-09-12T22:24:02.478Z,7.80
2022-09-12T22:26:34.935Z,8.07
2022-09-12T22:29:04.921Z,8.02
2022-09-12T22:31:34.219Z,8.18
2022-09-12T22:34:02.398Z,8.35
2022-09-12T22:36:31.879Z,8.18
2022-09-12T22:39:00.677Z,8.13
2022-09-12T22:41:28.626Z,8.65
2022-09-12T22:43:57.275Z,8.57
2022-09-12T22:46:27.453Z,8.25
2022-09-12T22:48:55.784Z,8.35
2022-09-12T22:51:24.184Z,8.48
2022-09-12T22:53:52.431Z,7.95
2022-09-12T22:56:20.245Z,8.43
2022-09-12T22:58:48.612Z,8.88
2022-09-12T23:01:17.454Z,9.10
2022-09-12T23:03:46.656Z,9.35
2022-09-12T23:06:14.815Z,9.38
2022-09-12T23:08:43.631Z,8.77
2022-09-12T23:11:13.918Z,8.77
2022-09-12T23:13:44.670Z,8.30
2022-09-12T23:16:17.010Z,8.02
2022-09-12T23:18:46.543Z,8.20
2022-09-12T23:21:17.098Z,8.30
2022-09-12T23:23:44.984Z,8.00
2022-09-12T23:26:15.440Z,8.25
2022-09-12T23:28:52.683Z,7.95
2022-09-12T23:31:21.378Z,7.90
2022-09-12T23:33:53.262Z,8.23
2022-09-12T23:36:22.332Z,7.90
2022-09-12T23:38:50.931Z,8.43
2022-09-12T23:41:19.971Z,8.27
2022-09-12T23:43:48.183Z,8.20
2022-09-12T23:46:18.438Z,7.85
2022-09-12T23:48:46.584Z,7.97
2022-09-12T23:51:16.434Z,8.57
2022-09-12T23:53:44.261Z,8.10
2022-09-12T23:56:12.030Z,7.90
2022-09-12T23:58:39.859Z,8.05
